那覇空港の過去48時間の天気

那覇空港 (Naha)

現在時刻: 1/19 20:33 JST (1/19 11:33 UTC) 以下の時間は現地時間です。

過去48時間のMETAR気象情報
時間 風向 風速(m/s) 視程 気温(℃) 湿度(%) 気圧(hPa) 天気現象
19 20:00 東南東 2 10km以上 20 60 1020
19 19:30 東南東 3 10km以上 20 60 1020
19 19:00 東南東 3 10km以上 20 60 1020
19 18:30 東南東 2 10km以上 20 56 1020
19 18:00 東南東 3 10km以上 20 56 1020
19 17:30 東南東 4 10km以上 21 53 1020
19 17:00 東南東 4 10km以上 21 49 1020
19 16:30 南東 5 10km以上 21 53 1020
19 16:00 南東 5 10km以上 21 49 1020
19 15:30 南東 4 10km以上 22 50 1020
19 15:00 南南東 4 10km以上 22 46 1020
19 14:30 南東 4 10km以上 22 46 1020
19 14:00 南南東 4 10km以上 22 46 1020
19 13:30 南東 4 10km以上 22 46 1020
19 13:00 4 10km以上 22 43 1021
19 12:30 3 10km以上 21 49 1021
19 12:00 3 10km以上 21 49 1022
19 11:30 2 10km以上 21 53 1022
19 11:00 東北東 2 10km以上 20 56 1023
19 10:30 2 10km以上 20 56 1023
19 10:00 2 10km以上 19 60 1024
19 09:30 東北東 2 10km以上 19 56 1024
19 09:00 東北東 2 10km以上 19 52 1023
19 08:30 東北東 2 10km以上 18 56 1023
19 08:00 東北東 2 10km以上 17 59 1023
19 07:30 南東 1 10km以上 17 59 1023
19 07:00 1 10km以上 16 63 1023
19 06:30 不定 1 10km以上 17 63 1022
19 06:00 東北東 2 10km以上 17 59 1022
19 05:30 北東 2 10km以上 17 59 1022
19 05:00 北東 2 10km以上 17 59 1022
19 04:30 北東 2 10km以上 17 59 1023
19 04:00 北東 3 10km以上 17 59 1023
19 03:30 北東 2 10km以上 17 55 1023
19 03:00 北北東 2 10km以上 17 55 1023
19 02:30 北北東 2 10km以上 17 55 1023
19 02:00 北東 2 10km以上 16 59 1023
19 01:30 2 10km以上 17 52 1023
19 01:00 不定 1 10km以上 16 59 1023
19 00:30 東北東 2 10km以上 16 59 1023
19 00:00 北北東 3 10km以上 16 59 1023
18 23:30 2 10km以上 16 59 1023
18 23:00 不定 1 10km以上 17 55 1023
18 22:30 北東 1 10km以上 16 59 1024
18 22:00 不定 1 10km以上 17 55 1024
18 21:30 東北東 3 10km以上 17 52 1024
18 21:00 北北東 4 10km以上 17 52 1024
18 20:30 北北東 4 10km以上 17 55 1024
18 20:00 2 10km以上 17 55 1023
18 19:30 東北東 2 10km以上 17 52 1023
18 19:00 東北東 2 10km以上 17 52 1023
18 18:30 東北東 4 10km以上 17 48 1022
18 18:00 東北東 5 10km以上 17 48 1022
18 17:30 東北東 5 10km以上 18 45 1022
18 17:00 北北東 6 10km以上 19 46 1022
18 16:30 北北東 5 10km以上 19 46 1022
18 16:00 北北東 7 10km以上 19 46 1022
18 15:30 北北東 7 10km以上 19 46 1022
18 15:00 北北東 7 10km以上 19 49 1022
18 14:30 北北東 6 10km以上 20 49 1022
18 14:00 北北東 6 10km以上 19 52 1022
18 13:30 北北東 6 10km以上 20 49 1023
18 13:00 北東 4 10km以上 20 43 1023
18 12:30 北北東 5 10km以上 19 43 1024
18 12:00 北東 5 10km以上 19 46 1024
18 11:30 北北東 5 10km以上 18 45 1025
18 11:00 北東 4 10km以上 18 42 1025
18 10:30 東北東 5 10km以上 18 49 1025
18 10:00 北東 5 10km以上 18 49 1025
18 09:30 北東 5 10km以上 17 48 1025
18 09:00 北東 5 10km以上 16 51 1025
18 08:30 東北東 4 10km以上 16 48 1024
18 08:00 東北東 4 10km以上 16 48 1024
18 07:30 北北東 6 10km以上 16 48 1024
18 07:00 北東 3 10km以上 16 48 1024
18 06:30 北北東 7 10km以上 16 55 1024
18 06:00 北北東 8 10km以上 16 51 1024
18 05:48 北北東 8 10km以上 15 51 1024
18 05:30 北北東 9 10km以上 15 51 1024
18 05:00 北北東 9 10km以上 16 51 1024
18 04:30 8 10km以上 15 45 1023
18 04:00 北北東 7 10km以上 16 55 1023
18 03:30 北北東 8 10km以上 16 55 1023
18 03:00 8 10km以上 16 55 1023
18 02:30 北北東 7 10km以上 16 59 1024
18 02:00 8 10km以上 15 55 1024
18 01:30 9 10km以上 15 55 1024
18 01:00 北北東 8 10km以上 16 55 1024
18 00:30 9 10km以上 15 55 1024
18 00:00 9 10km以上 15 48 1024
17 23:30 9 10km以上 16 48 1024
17 23:00 10 10km以上 15 55 1024
17 22:30 10 10km以上 16 59 1024
17 22:00 9 10km以上 16 51 1024
17 21:30 11 10km以上 16 59 1023
17 21:00 11 10km以上 16 63 1023
17 20:34 10 10km以上 16 59 1023
ROAH 191100Z 11004KT CAVOK 20/12 Q1020 RMK A3013
ROAH 191030Z 11005KT CAVOK 20/12 Q1020 RMK A3013
ROAH 191000Z 11005KT CAVOK 20/12 Q1020 RMK A3012
ROAH 190930Z 12004KT 070V140 CAVOK 20/11 Q1020 RMK A3013
ROAH 190900Z 12006KT 090V150 CAVOK 20/11 Q1020 RMK A3012
ROAH 190830Z 12007KT CAVOK 21/11 Q1020 RMK A3012
ROAH 190800Z 12007KT 090V150 9999 FEW035 BKN060 21/10 Q1020 RMK 1CU035 6SC060 A3013
ROAH 190730Z 13009KT 9999 FEW035 BKN060 21/11 Q1020 RMK 1CU035 6SC060 A3013
ROAH 190700Z 13009KT 9999 FEW035 BKN060 21/10 Q1020 RMK 1CU035 6SC060 A3013
ROAH 190630Z 14008KT 9999 FEW035 BKN060 22/11 Q1020 RMK 1CU035 6SC060 A3013
ROAH 190600Z 16008KT 130V210 9999 FEW035 BKN060 22/10 Q1020 RMK 1CU035 6SC060 A3013
ROAH 190530Z 14007KT 100V170 9999 FEW035 BKN050 22/10 Q1020 RMK 1CU035 6SC050 A3014
ROAH 190500Z 15007KT 9999 FEW035 BKN050 22/10 Q1020 RMK 1CU035 5SC050 A3015
ROAH 190430Z 14008KT 110V200 9999 FEW035 SCT050 22/10 Q1020 RMK 1CU035 4SC050 A3014
ROAH 190400Z 17007KT 110V200 9999 FEW035 BKN050 22/09 Q1021 RMK 2CU035 5SC050 A3016
ROAH 190330Z 08006KT 030V170 9999 FEW030 SCT035 BKN050 21/10 Q1021 RMK 1CU030 3CU035 5SC050 A3017
ROAH 190300Z 09006KT 060V130 9999 FEW035 BKN050 21/10 Q1022 RMK 2CU035 6SC050 A3019
ROAH 190230Z 08004KT 050V130 9999 FEW035 BKN050 21/11 Q1022 RMK 1CU035 7SC050 A3021
ROAH 190200Z 07003KT 030V120 9999 FEW040 BKN050 20/11 Q1023 RMK 1SC040 7SC050 A3022
ROAH 190130Z 08003KT 050V120 9999 FEW040 BKN050 20/11 Q1023 RMK 1SC040 7SC050 A3023
ROAH 190100Z 08004KT 050V120 9999 FEW040 BKN050 19/11 Q1024 RMK 1SC040 7SC050 A3024
ROAH 190030Z 07004KT 030V110 9999 FEW040 BKN050 19/10 Q1024 RMK 1SC040 7SC050 A3024
ROAH 190000Z 07004KT 9999 FEW040 BKN050 19/09 Q1023 RMK 1SC040 7SC050 A3023
ROAH 182330Z 07004KT 9999 FEW040 BKN050 18/09 Q1023 RMK 1SC040 7SC050 A3023
ROAH 182300Z 06003KT 9999 FEW040 BKN050 17/09 Q1023 RMK 1SC040 7SC050 A3022
ROAH 182230Z 14001KT 9999 FEW040 BKN050 17/09 Q1023 RMK 1SC040 6SC050 A3021
ROAH 182200Z 10002KT 9999 FEW040 BKN050 16/09 Q1023 RMK 1SC040 6SC050 A3021
ROAH 182130Z VRB02KT 9999 FEW040 SCT050 17/10 Q1022 RMK 1SC040 4SC050 A3021
ROAH 182100Z 06004KT 9999 FEW040 BKN050 17/09 Q1022 RMK 1SC040 7SC050 A3020
ROAH 182030Z 04003KT 9999 FEW040 BKN050 17/09 Q1022 RMK 1SC040 7SC050 A3020
ROAH 182000Z 05004KT 9999 FEW040 BKN050 17/09 Q1022 RMK 1SC040 7SC050 A3020
ROAH 181930Z 05004KT 9999 FEW040 BKN050 17/09 Q1023 RMK 1SC040 6SC050 A3021
ROAH 181900Z 04005KT 9999 FEW040 BKN050 17/09 Q1023 RMK 1SC040 6SC050 A3021
ROAH 181830Z 04003KT 9999 FEW040 BKN050 17/08 Q1023 RMK 1SC040 6SC050 A3021
ROAH 181800Z 03003KT 9999 FEW040 BKN050 17/08 Q1023 RMK 1SC040 6SC050 A3022
ROAH 181730Z 03003KT 9999 FEW040 BKN045 17/08 Q1023 RMK 1SC040 6SC045 A3022
ROAH 181700Z 05003KT 9999 FEW040 SCT045 16/08 Q1023 RMK 1SC040 3SC045 A3023
ROAH 181630Z 08004KT 050V120 9999 FEW040 17/07 Q1023 RMK 1SC040 A3022
ROAH 181600Z VRB02KT 9999 FEW040 16/08 Q1023 RMK 1SC040 A3022
ROAH 181530Z 06004KT 020V100 9999 FEW040 SCT045 16/08 Q1023 RMK 1SC040 3SC045 A3022
ROAH 181500Z 03006KT 9999 FEW040 BKN045 16/08 Q1023 RMK 1SC040 6SC045 A3023
ROAH 181430Z 01003KT 9999 FEW040 BKN045 16/08 Q1023 RMK 2SC040 6SC045 A3023
ROAH 181400Z VRB02KT 9999 FEW040 BKN045 17/08 Q1023 RMK 1SC040 6SC045 A3023
ROAH 181330Z 05002KT 9999 FEW040 BKN045 16/08 Q1024 RMK 1SC040 6SC045 A3024
ROAH 181300Z VRB02KT 9999 FEW040 BKN045 17/08 Q1024 RMK 1SC040 6SC045 A3025
ROAH 181230Z 06005KT 020V130 9999 FEW038 BKN045 17/07 Q1024 RMK 1SC038 6SC045 A3025
ROAH 181200Z 03007KT 9999 FEW038 BKN045 17/07 Q1024 RMK 2SC038 6SC045 A3025
ROAH 181130Z 03008KT 360V100 9999 FEW040 BKN045 17/08 Q1024 RMK 2SC040 6SC045 A3024
ROAH 181100Z 18003KT 9999 BKN042 17/08 Q1023 RMK 7SC042 A3023
ROAH 181030Z 07004KT 030V110 9999 BKN042 17/07 Q1023 RMK 7SC042 A3022
ROAH 181000Z 07004KT 360V170 9999 BKN044 17/07 Q1023 RMK 5SC044 A3022
ROAH 180930Z 07007KT 040V120 9999 FEW045 17/06 Q1022 RMK 2SC045 A3021
ROAH 180900Z 06009KT 9999 FEW045 17/06 Q1022 RMK 2SC045 A3020
ROAH 180830Z 06009KT 030V120 9999 FEW045 18/06 Q1022 RMK 2SC045 A3020
ROAH 180800Z 03012KT 9999 FEW045 19/07 Q1022 RMK 1SC045 A3019
ROAH 180730Z 03009KT 9999 FEW045 19/07 Q1022 RMK 1SC045 A3020
ROAH 180700Z 02013KT 9999 FEW045 19/07 Q1022 RMK 2SC045 A3020
ROAH 180630Z 02013KT 9999 FEW045 19/07 Q1022 RMK 2SC045 A3020
ROAH 180600Z 02013KT 9999 SCT045 19/08 Q1022 RMK 3SC045 A3020
ROAH 180530Z 02012KT 9999 SCT045 20/09 Q1022 RMK 3SC045 A3020
ROAH 180500Z 02011KT 340V050 9999 FEW035 BKN045 19/09 Q1022 RMK 1CU035 5SC045 A3020
ROAH 180430Z 02011KT 350V060 9999 SCT045 20/09 Q1023 RMK 4SC045 A3022
ROAH 180400Z 04008KT 360V120 9999 SCT045 20/07 Q1023 RMK 3SC045 A3023
ROAH 180330Z 03010KT 360V150 9999 SCT045 19/06 Q1024 RMK 3SC045 A3024
ROAH 180300Z 04009KT 350V110 9999 SCT045 19/07 Q1024 RMK 3SC045 A3026
ROAH 180230Z 02010KT 9999 FEW045 18/06 Q1025 RMK 2SC045 A3027
ROAH 180200Z 05008KT 020V090 9999 FEW045 18/05 Q1025 RMK 2SC045 A3027
ROAH 180130Z 06009KT 020V100 9999 SCT045 18/07 Q1025 RMK 3SC045 A3028
ROAH 180100Z 04010KT 360V080 9999 SCT045 18/07 Q1025 RMK 4SC045 A3028
ROAH 180030Z 04010KT 010V070 9999 SCT040 17/06 Q1025 RMK 3SC040 A3028
ROAH 180000Z 05009KT 9999 FEW035 SCT045 16/06 Q1025 RMK 1CU035 3SC045 A3027
ROAH 172330Z 06007KT 9999 FEW035 SCT045 16/05 Q1024 RMK 1CU035 3SC045 A3026
ROAH 172300Z 06008KT 040V100 9999 FEW035 SCT045 16/05 Q1024 RMK 1CU035 4SC045 A3026
ROAH 172230Z 03012KT 9999 FEW035 SCT045 16/05 Q1024 RMK 1CU035 3SC045 A3026
ROAH 172200Z 05006KT 010V100 9999 FEW035 BKN045 16/05 Q1024 RMK 1CU035 5SC045 A3025
ROAH 172130Z 03013KT 360V060 9999 FEW035 BKN040 16/07 Q1024 RMK 1CU035 6SC040 A3025
ROAH 172100Z 02015KT 9999 FEW035 SCT045 16/06 Q1024 RMK 1CU035 4SC045 A3024
ROAH 172048Z 02015G25KT 9999 FEW035 SCT045 15/05 Q1024 RMK 1CU035 4SC045 A3024
ROAH 172030Z 02017KT 9999 FEW035 SCT045 15/05 Q1024 RMK 1CU035 3SC045 A3024
ROAH 172000Z 02017KT 9999 FEW035 BKN050 16/06 Q1024 RMK 1CU035 5SC050 A3024
ROAH 171930Z 01016KT 9999 FEW035 SCT050 15/03 Q1023 RMK 1CU035 3SC050 A3023
ROAH 171900Z 02014KT 9999 FEW035 BKN045 16/07 Q1023 RMK 2CU035 5SC045 A3023
ROAH 171830Z 03016KT 9999 FEW030 BKN045 16/07 Q1023 RMK 1CU030 5SC045 A3023
ROAH 171800Z 01015KT 9999 FEW035 BKN040 16/07 Q1023 RMK 1CU035 6SC040 A3023
ROAH 171730Z 02013KT 9999 FEW035 BKN040 16/08 Q1024 RMK 1CU035 6SC040 A3024
ROAH 171700Z 01016KT 9999 FEW035 SCT045 15/06 Q1024 RMK 1CU035 3SC045 A3025
ROAH 171630Z 36018KT 9999 FEW035 SCT040 15/06 Q1024 RMK 1CU035 3SC040 A3025
ROAH 171600Z 02016KT 9999 FEW035 BKN040 16/07 Q1024 RMK 1CU035 6SC040 A3024
ROAH 171530Z 36018KT 9999 SCT040 15/06 Q1024 RMK 3SC040 A3025
ROAH 171500Z 36018KT 9999 FEW040 15/04 Q1024 RMK 2SC040 A3025
ROAH 171430Z 01018KT 9999 SCT040 16/05 Q1024 RMK 3SC040 A3025
ROAH 171400Z 36019KT 9999 FEW035 15/06 Q1024 RMK 2CU035 A3025
ROAH 171330Z 36020KT 9999 FEW035 BKN050 16/08 Q1024 RMK 2CU035 6SC050 A3024
ROAH 171300Z 36017KT 9999 FEW035 SCT050 16/06 Q1024 RMK 1CU035 4SC050 A3024
ROAH 171230Z 36021KT 9999 FEW035 BKN050 16/08 Q1023 RMK 2CU035 6SC050 A3023
ROAH 171200Z 36022KT 9999 FEW035 BKN050 16/09 Q1023 RMK 2CU035 6SC050 A3023
ROAH 171134Z 36020G30KT 9999 FEW035 BKN050 16/08 Q1023 RMK 2CU035 6SC050 A3022